createdAt,value
2017-11-24T00:02:17.737Z,13.00
2017-11-24T00:04:45.947Z,13.00
2017-11-24T00:07:13.369Z,13.00
2017-11-24T00:09:40.824Z,13.10
2017-11-24T00:12:08.234Z,13.10
2017-11-24T00:14:35.861Z,13.00
2017-11-24T00:17:03.281Z,13.00
2017-11-24T00:19:30.717Z,12.90
2017-11-24T00:21:58.157Z,12.90
2017-11-24T00:24:25.599Z,12.90
2017-11-24T00:26:53.017Z,12.80
2017-11-24T00:29:21.220Z,12.70
2017-11-24T00:31:48.649Z,12.70
2017-11-24T00:34:16.845Z,12.70
2017-11-24T00:36:44.273Z,12.60
2017-11-24T00:39:11.696Z,12.60
2017-11-24T00:41:39.141Z,12.60
2017-11-24T00:44:06.565Z,12.60
2017-11-24T00:46:34.005Z,12.60
2017-11-24T00:49:02.193Z,12.60
2017-11-24T00:51:29.670Z,12.60
2017-11-24T00:53:57.089Z,12.50
2017-11-24T00:56:24.531Z,12.50
2017-11-24T00:58:51.957Z,12.50
2017-11-24T01:01:19.393Z,12.50
2017-11-24T01:03:46.829Z,12.40
2017-11-24T01:06:14.253Z,12.40
2017-11-24T01:08:41.683Z,12.40
2017-11-24T01:11:09.101Z,12.30
2017-11-24T01:13:36.553Z,12.30
2017-11-24T01:16:03.977Z,12.30
2017-11-24T01:18:32.177Z,12.20
2017-11-24T01:20:59.601Z,12.20
2017-11-24T01:23:27.045Z,12.20
2017-11-24T01:25:54.470Z,12.10
2017-11-24T01:28:21.906Z,12.00
2017-11-24T01:30:49.334Z,12.00
2017-11-24T01:33:17.531Z,11.80
2017-11-24T01:35:44.962Z,11.80
2017-11-24T01:38:13.174Z,11.70
2017-11-24T01:40:40.601Z,11.70
2017-11-24T01:43:08.038Z,11.70
2017-11-24T01:45:35.462Z,11.70
2017-11-24T01:48:02.886Z,11.60
2017-11-24T01:50:30.318Z,11.60
2017-11-24T01:52:58.521Z,11.60
2017-11-24T01:55:25.965Z,11.60
2017-11-24T01:57:53.401Z,11.60
2017-11-24T02:00:21.598Z,11.60
2017-11-24T02:02:49.182Z,11.50
2017-11-24T02:05:16.596Z,11.50
2017-11-24T02:07:44.793Z,11.50
2017-11-24T02:10:12.221Z,11.50
2017-11-24T02:12:40.404Z,11.50
2017-11-24T02:15:07.845Z,11.50
2017-11-24T02:17:35.269Z,11.50
2017-11-24T02:20:02.702Z,11.50
2017-11-24T02:22:30.130Z,11.50
2017-11-24T02:24:57.565Z,11.50
2017-11-24T02:27:25.757Z,11.50
2017-11-24T02:29:53.201Z,11.50
2017-11-24T02:32:21.408Z,11.60
2017-11-24T02:34:48.832Z,11.50
2017-11-24T02:37:17.034Z,11.60
2017-11-24T02:39:44.476Z,11.50
2017-11-24T02:42:11.901Z,11.60
2017-11-24T02:44:39.353Z,11.50
2017-11-24T02:47:06.794Z,11.60
2017-11-24T02:49:34.225Z,11.60
2017-11-24T02:52:01.661Z,11.70
2017-11-24T02:54:29.081Z,11.70
2017-11-24T02:56:56.521Z,11.70
2017-11-24T02:59:23.952Z,11.70
2017-11-24T03:01:51.385Z,11.70
2017-11-24T03:04:18.813Z,11.70
2017-11-24T03:06:47.018Z,11.70
2017-11-24T03:09:14.441Z,11.70
2017-11-24T03:11:42.640Z,11.70
2017-11-24T03:14:10.074Z,11.70
2017-11-24T03:16:37.502Z,11.60
2017-11-24T03:19:04.942Z,11.60
2017-11-24T03:21:32.362Z,11.60
2017-11-24T03:23:59.797Z,11.60
2017-11-24T03:26:27.990Z,11.50
2017-11-24T03:28:55.441Z,11.50
2017-11-24T03:31:22.863Z,11.50
2017-11-24T03:33:50.309Z,11.40
2017-11-24T03:36:17.739Z,11.40
2017-11-24T03:38:45.168Z,11.40
2017-11-24T03:41:12.601Z,11.40
2017-11-24T03:43:40.033Z,11.40
2017-11-24T03:46:07.466Z,11.40
2017-11-24T03:48:34.906Z,11.40
2017-11-24T03:51:02.330Z,11.40
2017-11-24T03:53:30.525Z,11.40
2017-11-24T03:55:57.962Z,11.40
2017-11-24T03:58:26.152Z,11.50
2017-11-24T04:00:53.584Z,11.50
2017-11-24T04:03:21.293Z,11.50
2017-11-24T04:05:48.704Z,11.50
2017-11-24T04:08:16.901Z,11.60
2017-11-24T04:10:44.342Z,11.60
2017-11-24T04:13:12.533Z,11.70
2017-11-24T04:15:39.965Z,11.70
2017-11-24T04:18:08.161Z,11.70
2017-11-24T04:20:35.590Z,11.70
2017-11-24T04:23:03.786Z,11.80
2017-11-24T04:25:31.237Z,11.70
2017-11-24T04:27:59.424Z,11.80
2017-11-24T04:30:27.041Z,11.80
2017-11-24T04:32:54.479Z,11.80
2017-11-24T04:35:22.266Z,11.80
2017-11-24T04:37:49.701Z,11.80
2017-11-24T04:40:17.132Z,11.80
2017-11-24T04:42:45.325Z,11.90
2017-11-24T04:45:12.759Z,11.80
2017-11-24T04:47:40.197Z,11.90
2017-11-24T04:50:07.622Z,11.90
2017-11-24T04:52:35.060Z,12.00
2017-11-24T04:55:02.510Z,12.10
2017-11-24T04:57:29.940Z,12.10
2017-11-24T04:59:57.361Z,12.10
2017-11-24T05:02:25.563Z,12.30
2017-11-24T05:04:52.986Z,12.20
2017-11-24T05:07:21.218Z,12.30
2017-11-24T05:09:48.657Z,12.30
2017-11-24T05:12:16.077Z,12.40
2017-11-24T05:14:43.518Z,12.40
2017-11-24T05:17:11.705Z,12.50
2017-11-24T05:19:39.241Z,12.50
2017-11-24T05:22:06.669Z,12.50
2017-11-24T05:24:34.105Z,12.60
2017-11-24T05:27:01.529Z,12.60
2017-11-24T05:29:29.733Z,12.60
2017-11-24T05:31:57.154Z,12.70
2017-11-24T05:34:24.621Z,12.60
2017-11-24T05:36:52.043Z,12.60
2017-11-24T05:39:19.480Z,12.70
2017-11-24T05:41:46.919Z,12.70
2017-11-24T05:44:14.352Z,12.70
2017-11-24T05:46:41.781Z,12.70
2017-11-24T05:49:09.226Z,12.60
2017-11-24T05:51:36.670Z,12.60
2017-11-24T05:54:04.099Z,12.60
2017-11-24T05:56:31.534Z,12.60
2017-11-24T05:58:58.955Z,12.60
2017-11-24T06:01:26.389Z,12.70
2017-11-24T06:03:53.828Z,12.60
2017-11-24T06:06:21.273Z,12.70
2017-11-24T06:08:48.706Z,12.60
2017-11-24T06:11:16.453Z,12.60
2017-11-24T06:13:43.878Z,12.60
2017-11-24T06:16:11.315Z,12.60
2017-11-24T06:18:38.742Z,12.50
2017-11-24T06:21:07.185Z,12.50
2017-11-24T06:23:34.624Z,12.40
2017-11-24T06:26:02.046Z,12.40
2017-11-24T06:28:29.467Z,12.40
2017-11-24T06:30:57.692Z,12.30
2017-11-24T06:33:25.113Z,12.20
2017-11-24T06:35:52.541Z,12.20
2017-11-24T06:38:19.976Z,12.20
2017-11-24T06:40:47.409Z,12.20
2017-11-24T06:43:14.860Z,12.20
2017-11-24T06:45:42.289Z,12.10
2017-11-24T06:48:09.757Z,12.10
2017-11-24T06:50:37.587Z,12.10
2017-11-24T06:53:05.013Z,12.10
2017-11-24T06:55:32.445Z,12.00
2017-11-24T06:57:59.873Z,12.00
2017-11-24T07:00:28.079Z,12.00
2017-11-24T07:02:55.518Z,12.00
2017-11-24T07:05:22.956Z,12.00
2017-11-24T07:07:51.145Z,12.00
2017-11-24T07:10:18.577Z,12.00
2017-11-24T07:12:46.001Z,12.00
2017-11-24T07:15:13.468Z,12.00
2017-11-24T07:17:40.893Z,12.00
2017-11-24T07:20:08.330Z,12.00
2017-11-24T07:22:35.758Z,12.00
2017-11-24T07:25:03.957Z,12.00
2017-11-24T07:27:31.392Z,12.10
2017-11-24T07:29:58.833Z,12.10
2017-11-24T07:32:27.025Z,12.10
2017-11-24T07:34:55.213Z,12.10
2017-11-24T07:37:22.704Z,12.10
2017-11-24T07:39:50.887Z,12.10
2017-11-24T07:42:18.329Z,12.10
2017-11-24T07:44:45.768Z,12.10
2017-11-24T07:47:14.145Z,12.10
2017-11-24T07:49:41.682Z,12.20
2017-11-24T07:52:09.870Z,12.20
2017-11-24T07:54:37.297Z,12.20
2017-11-24T07:57:04.730Z,12.20
2017-11-24T07:59:32.149Z,12.30
2017-11-24T08:01:59.577Z,12.30
2017-11-24T08:04:26.993Z,12.30
2017-11-24T08:06:54.446Z,12.30
2017-11-24T08:09:21.877Z,12.40
2017-11-24T08:11:49.303Z,12.40
2017-11-24T08:14:16.744Z,12.50
2017-11-24T08:16:44.936Z,12.60
2017-11-24T08:19:12.367Z,12.50
2017-11-24T08:21:40.552Z,12.70
2017-11-24T08:24:08.044Z,12.60
2017-11-24T08:26:35.506Z,12.70
2017-11-24T08:29:02.942Z,12.90
2017-11-24T08:31:30.367Z,13.00
2017-11-24T08:33:58.574Z,13.10
2017-11-24T08:36:26.018Z,13.10
2017-11-24T08:38:53.553Z,13.10
2017-11-24T08:41:21.753Z,13.30
2017-11-24T08:43:49.188Z,13.30
2017-11-24T08:46:22.186Z,13.30
2017-11-24T08:48:55.349Z,13.40
2017-11-24T08:51:22.776Z,13.50
2017-11-24T08:53:50.201Z,13.60
2017-11-24T08:56:17.625Z,13.70
2017-11-24T08:58:45.055Z,13.70
2017-11-24T09:01:12.505Z,13.80
2017-11-24T09:03:39.934Z,13.80
2017-11-24T09:06:07.373Z,13.90
2017-11-24T09:08:34.802Z,14.00
2017-11-24T09:11:02.230Z,14.00
2017-11-24T09:13:29.665Z,14.10
2017-11-24T09:15:57.099Z,14.10
2017-11-24T09:18:24.525Z,14.20
2017-11-24T09:20:52.726Z,14.20
2017-11-24T09:23:20.145Z,14.20
2017-11-24T09:25:47.578Z,14.30
2017-11-24T09:28:15.020Z,14.40
2017-11-24T09:30:42.432Z,14.40
2017-11-24T09:33:09.873Z,14.40
2017-11-24T09:35:37.305Z,14.50
2017-11-24T09:38:04.736Z,14.60
2017-11-24T09:40:32.165Z,14.70
2017-11-24T09:42:59.609Z,14.70
2017-11-24T09:45:27.206Z,14.70
2017-11-24T09:47:54.654Z,14.70
2017-11-24T09:50:22.087Z,14.70
2017-11-24T09:52:50.293Z,14.80
2017-11-24T09:55:17.725Z,14.70
2017-11-24T09:57:45.142Z,14.80
2017-11-24T10:00:12.913Z,14.80
2017-11-24T10:02:40.391Z,14.90
2017-11-24T10:05:07.789Z,14.90
2017-11-24T10:07:35.224Z,15.00
2017-11-24T10:10:02.655Z,15.00
2017-11-24T10:12:30.841Z,15.00
2017-11-24T10:14:58.281Z,15.00
2017-11-24T10:17:25.709Z,14.90
2017-11-24T10:19:53.140Z,14.90
2017-11-24T10:22:26.113Z,14.90
2017-11-24T10:24:53.547Z,15.00
2017-11-24T10:27:21.733Z,15.10
2017-11-24T10:29:49.175Z,15.00
2017-11-24T10:32:16.604Z,15.00
2017-11-24T10:34:44.029Z,15.00
2017-11-24T10:37:11.455Z,14.90
2017-11-24T10:39:38.880Z,14.90
2017-11-24T10:42:07.072Z,14.90
2017-11-24T10:44:34.498Z,14.90
2017-11-24T10:47:01.921Z,15.00
2017-11-24T10:49:29.357Z,15.00
2017-11-24T10:51:56.820Z,15.20
2017-11-24T10:54:24.220Z,15.30
2017-11-24T10:56:51.676Z,15.40
2017-11-24T10:59:19.088Z,15.50
2017-11-24T11:01:46.501Z,15.60
2017-11-24T11:04:13.939Z,15.70
2017-11-24T11:06:41.361Z,15.70
2017-11-24T11:09:08.792Z,15.70
2017-11-24T11:11:36.209Z,15.70
2017-11-24T11:14:03.653Z,15.70
2017-11-24T11:16:31.062Z,15.80
2017-11-24T11:18:58.495Z,15.90
2017-11-24T11:21:26.681Z,16.00
2017-11-24T11:23:54.117Z,16.00
2017-11-24T11:26:21.540Z,16.10
2017-11-24T11:28:48.978Z,16.20
2017-11-24T11:31:16.392Z,16.30
2017-11-24T11:33:44.605Z,16.30
2017-11-24T11:36:12.049Z,16.30
2017-11-24T11:38:40.213Z,16.20
2017-11-24T11:41:07.644Z,16.10
2017-11-24T11:43:35.070Z,16.10
2017-11-24T11:46:02.511Z,16.00
2017-11-24T11:48:29.939Z,15.90
2017-11-24T11:50:57.407Z,15.90
2017-11-24T11:53:24.821Z,15.90
2017-11-24T11:55:52.252Z,15.90
2017-11-24T11:58:19.675Z,15.80
2017-11-24T12:00:47.097Z,15.80
2017-11-24T12:03:15.298Z,15.70
2017-11-24T12:05:42.737Z,15.70
2017-11-24T12:08:10.161Z,15.60
2017-11-24T12:10:37.590Z,15.60
2017-11-24T12:13:05.022Z,15.60
2017-11-24T12:15:32.445Z,15.60
2017-11-24T12:18:00.644Z,15.60
2017-11-24T12:20:28.076Z,15.50
2017-11-24T12:22:55.505Z,15.50
2017-11-24T12:25:22.928Z,15.60
2017-11-24T12:27:50.366Z,15.50
2017-11-24T12:30:17.777Z,15.50
2017-11-24T12:32:45.217Z,15.60
2017-11-24T12:35:12.644Z,15.50
2017-11-24T12:37:40.065Z,15.50
2017-11-24T12:40:07.494Z,15.50
2017-11-24T12:42:34.916Z,15.50
2017-11-24T12:45:02.351Z,15.50
2017-11-24T12:47:29.777Z,15.40
2017-11-24T12:49:57.209Z,15.40
2017-11-24T12:52:24.637Z,15.40
2017-11-24T12:54:52.065Z,15.40
2017-11-24T12:57:19.489Z,15.40
2017-11-24T12:59:46.929Z,15.40
2017-11-24T13:02:14.372Z,15.40
2017-11-24T13:04:41.878Z,15.40
2017-11-24T13:07:10.073Z,15.40
2017-11-24T13:09:37.499Z,15.40
2017-11-24T13:12:04.931Z,15.40
2017-11-24T13:14:32.349Z,15.40
2017-11-24T13:16:59.776Z,15.40
2017-11-24T13:19:27.970Z,15.40
2017-11-24T13:21:55.401Z,15.40
2017-11-24T13:24:22.827Z,15.30
2017-11-24T13:26:51.027Z,15.30
2017-11-24T13:29:18.453Z,15.30
2017-11-24T13:31:45.913Z,15.30
2017-11-24T13:34:13.344Z,15.30
2017-11-24T13:36:40.792Z,15.30
2017-11-24T13:39:08.209Z,15.30
2017-11-24T13:41:35.630Z,15.30
2017-11-24T13:44:03.076Z,15.30
2017-11-24T13:46:30.499Z,15.20
2017-11-24T13:48:57.970Z,15.20
2017-11-24T13:51:25.374Z,15.20
2017-11-24T13:53:52.884Z,15.20
2017-11-24T13:56:20.289Z,15.20
2017-11-24T13:58:47.719Z,15.20
2017-11-24T14:01:15.158Z,15.20
2017-11-24T14:03:42.592Z,15.10
2017-11-24T14:06:10.010Z,15.10
2017-11-24T14:08:37.433Z,15.10
2017-11-24T14:11:04.853Z,15.10
2017-11-24T14:13:32.289Z,15.10
2017-11-24T14:15:59.728Z,15.10
2017-11-24T14:18:27.141Z,15.10
2017-11-24T14:20:54.577Z,15.10
2017-11-24T14:23:22.017Z,15.10
2017-11-24T14:25:50.200Z,15.00
2017-11-24T14:28:17.621Z,15.00
2017-11-24T14:30:45.046Z,15.00
2017-11-24T14:33:12.473Z,15.00
2017-11-24T14:35:39.904Z,15.00
2017-11-24T14:38:08.099Z,15.00
2017-11-24T14:40:35.529Z,15.00
2017-11-24T14:43:03.713Z,15.00
2017-11-24T14:45:31.130Z,15.00
2017-11-24T14:47:58.577Z,15.00
2017-11-24T14:50:26.001Z,14.90
2017-11-24T14:52:53.420Z,14.90
2017-11-24T14:55:20.846Z,14.90
2017-11-24T14:57:48.278Z,14.80
2017-11-24T15:00:15.696Z,14.80
2017-11-24T15:02:43.911Z,14.80
2017-11-24T15:05:11.345Z,14.70
2017-11-24T15:07:38.784Z,14.70
2017-11-24T15:10:06.961Z,14.70
2017-11-24T15:12:34.385Z,14.70
2017-11-24T15:15:01.825Z,14.70
2017-11-24T15:17:29.265Z,14.70
2017-11-24T15:19:56.677Z,14.60
2017-11-24T15:22:24.105Z,14.60
2017-11-24T15:24:51.541Z,14.60
2017-11-24T15:27:18.969Z,14.60
2017-11-24T15:29:46.405Z,14.60
2017-11-24T15:32:14.598Z,14.60
2017-11-24T15:34:42.029Z,14.60
2017-11-24T15:37:09.445Z,14.60
2017-11-24T15:39:36.906Z,14.60
2017-11-24T15:42:04.320Z,14.60
2017-11-24T15:44:31.741Z,14.60
2017-11-24T15:46:59.178Z,14.50
2017-11-24T15:49:26.606Z,14.50
2017-11-24T15:51:54.036Z,14.60
2017-11-24T15:54:21.457Z,14.60
2017-11-24T15:56:48.897Z,14.60
2017-11-24T15:59:16.335Z,14.60
2017-11-24T16:01:43.758Z,14.50
2017-11-24T16:04:11.179Z,14.50
2017-11-24T16:06:38.633Z,14.50
2017-11-24T16:09:06.069Z,14.50
2017-11-24T16:11:33.481Z,14.50
2017-11-24T16:14:00.920Z,14.50
2017-11-24T16:16:28.526Z,14.50
2017-11-24T16:18:55.950Z,14.50
2017-11-24T16:21:23.372Z,14.40
2017-11-24T16:23:50.808Z,14.40
2017-11-24T16:26:18.240Z,14.40
2017-11-24T16:28:45.685Z,14.40
2017-11-24T16:31:13.117Z,14.30
2017-11-24T16:33:40.529Z,14.30
2017-11-24T16:36:07.969Z,14.30
2017-11-24T16:38:35.385Z,14.20
2017-11-24T16:41:02.875Z,14.20
2017-11-24T16:43:30.315Z,14.10
2017-11-24T16:45:57.730Z,14.00
2017-11-24T16:48:25.154Z,13.90
2017-11-24T16:50:52.595Z,13.80
2017-11-24T16:53:20.023Z,13.80
2017-11-24T16:58:51.220Z,13.70
2017-11-24T17:01:18.649Z,13.70
2017-11-24T17:03:46.083Z,13.60
2017-11-24T17:06:13.517Z,13.50
2017-11-24T17:08:40.947Z,13.50
2017-11-24T17:11:08.386Z,13.50
2017-11-24T17:13:35.805Z,13.40
2017-11-24T17:16:03.234Z,13.40
2017-11-24T17:18:30.674Z,13.40
2017-11-24T17:20:58.104Z,13.40
2017-11-24T17:23:26.317Z,13.40
2017-11-24T17:25:53.730Z,13.40
2017-11-24T17:28:21.177Z,13.40
2017-11-24T17:30:48.606Z,13.40
2017-11-24T17:33:16.043Z,13.30
2017-11-24T17:35:43.461Z,13.30
2017-11-24T17:38:11.663Z,13.30
2017-11-24T17:40:39.096Z,13.30
2017-11-24T17:43:06.523Z,13.30
2017-11-24T17:45:33.945Z,13.30
2017-11-24T17:48:01.385Z,13.30
2017-11-24T17:50:28.812Z,13.30
2017-11-24T17:52:56.998Z,13.30
2017-11-24T17:55:24.446Z,13.30
2017-11-24T17:57:51.876Z,13.30
2017-11-24T18:00:19.306Z,13.30
2017-11-24T18:02:46.730Z,13.30
2017-11-24T18:05:14.163Z,13.30
2017-11-24T18:07:42.357Z,13.30
2017-11-24T18:10:09.793Z,13.30
2017-11-24T18:12:37.224Z,13.30
2017-11-24T18:15:04.954Z,13.30
2017-11-24T18:17:32.372Z,13.30
2017-11-24T18:20:00.586Z,13.20
2017-11-24T18:22:28.005Z,13.20
2017-11-24T18:24:55.470Z,13.20
2017-11-24T18:27:22.889Z,13.10
2017-11-24T18:29:50.318Z,13.10
2017-11-24T18:32:17.748Z,13.10
2017-11-24T18:34:45.172Z,13.00
2017-11-24T18:37:13.380Z,13.00
2017-11-24T18:39:40.814Z,13.00
2017-11-24T18:42:08.246Z,12.90
2017-11-24T18:44:36.065Z,12.90
2017-11-24T18:47:03.516Z,13.00
2017-11-24T18:49:30.950Z,12.90
2017-11-24T18:51:59.136Z,12.90
2017-11-24T18:54:26.573Z,12.90
2017-11-24T18:56:53.985Z,12.90
2017-11-24T18:59:22.197Z,13.00
2017-11-24T19:01:50.398Z,13.00
2017-11-24T19:04:17.831Z,13.00
2017-11-24T19:06:45.253Z,13.00
2017-11-24T19:09:12.696Z,12.90
2017-11-24T19:14:32.812Z,12.80
2017-11-24T19:17:00.245Z,12.80
2017-11-24T19:19:27.683Z,12.80
2017-11-24T19:21:55.109Z,12.80
2017-11-24T19:24:22.548Z,12.80
2017-11-24T19:26:50.080Z,12.80
2017-11-24T19:29:18.233Z,12.70
2017-11-24T19:31:45.665Z,12.70
2017-11-24T19:34:13.079Z,12.70
2017-11-24T19:36:40.517Z,12.70
2017-11-24T19:39:07.961Z,12.70
2017-11-24T19:41:35.448Z,12.70
2017-11-24T19:44:02.909Z,12.70
2017-11-24T19:46:30.361Z,12.80
2017-11-24T19:48:57.785Z,12.80
2017-11-24T19:51:25.196Z,12.70
2017-11-24T19:53:52.706Z,12.80
2017-11-24T19:56:20.131Z,12.80
2017-11-24T19:58:47.553Z,12.70
2017-11-24T20:01:16.598Z,12.70
2017-11-24T20:03:44.022Z,12.70
2017-11-24T20:06:11.450Z,12.70
2017-11-24T20:08:38.895Z,12.70
2017-11-24T20:11:06.331Z,12.70
2017-11-24T20:13:33.752Z,12.70
2017-11-24T20:16:01.177Z,12.70
2017-11-24T20:18:28.613Z,12.70
2017-11-24T20:20:56.043Z,12.60
2017-11-24T20:23:23.480Z,12.60
2017-11-24T20:25:50.906Z,12.60
2017-11-24T20:28:19.105Z,12.50
2017-11-24T20:30:46.526Z,12.50
2017-11-24T20:33:13.956Z,12.40
2017-11-24T20:35:41.385Z,12.40
2017-11-24T20:38:08.805Z,12.40
2017-11-24T20:40:36.232Z,12.40
2017-11-24T20:43:03.659Z,12.30
2017-11-24T20:45:31.076Z,12.30
2017-11-24T20:47:59.278Z,12.30
2017-11-24T20:50:26.700Z,12.30
2017-11-24T20:52:54.129Z,12.30
2017-11-24T20:55:21.557Z,12.20
2017-11-24T20:57:48.985Z,12.20
2017-11-24T21:00:16.430Z,12.20
2017-11-24T21:02:44.614Z,12.10
2017-11-24T21:05:12.048Z,12.10
2017-11-24T21:07:39.473Z,12.10
2017-11-24T21:10:06.911Z,12.10
2017-11-24T21:12:34.328Z,12.10
2017-11-24T21:15:02.534Z,12.00
2017-11-24T21:17:29.966Z,12.00
2017-11-24T21:19:58.137Z,12.00
2017-11-24T21:22:25.573Z,12.00
2017-11-24T21:24:52.986Z,12.00
2017-11-24T21:27:20.414Z,12.00
2017-11-24T21:29:47.841Z,12.00
2017-11-24T21:32:15.273Z,12.00
2017-11-24T21:34:42.692Z,12.00
2017-11-24T21:37:10.118Z,12.00
2017-11-24T21:39:38.320Z,12.00
2017-11-24T21:42:05.750Z,11.90
2017-11-24T21:44:33.937Z,11.90
2017-11-24T21:47:01.365Z,11.90
2017-11-24T21:49:29.557Z,11.90
2017-11-24T21:51:57.757Z,11.90
2017-11-24T21:54:25.169Z,11.90
2017-11-24T21:56:52.615Z,11.90
2017-11-24T21:59:20.037Z,11.90
2017-11-24T22:01:47.467Z,11.90
2017-11-24T22:04:14.893Z,11.90
2017-11-24T22:06:43.085Z,11.90
2017-11-24T22:09:10.521Z,11.90
2017-11-24T22:11:37.954Z,11.90
2017-11-24T22:14:05.381Z,11.90
2017-11-24T22:16:32.804Z,11.90
2017-11-24T22:19:00.241Z,11.90
2017-11-24T22:21:28.437Z,11.90
2017-11-24T22:23:55.869Z,11.90
2017-11-24T22:26:23.292Z,11.90
2017-11-24T22:28:50.730Z,11.90
2017-11-24T22:31:18.153Z,11.90
2017-11-24T22:33:46.345Z,12.00
2017-11-24T22:36:13.761Z,12.00
2017-11-24T22:38:41.193Z,12.00
2017-11-24T22:41:08.617Z,12.00
2017-11-24T22:43:36.066Z,12.00
2017-11-24T22:46:03.497Z,12.00
2017-11-24T22:48:31.668Z,11.90
2017-11-24T22:50:59.097Z,11.90
2017-11-24T22:53:26.516Z,11.90
2017-11-24T22:55:53.953Z,11.90
2017-11-24T22:58:22.129Z,11.90
2017-11-24T23:00:49.561Z,11.90
2017-11-24T23:03:17.746Z,11.80
2017-11-24T23:05:45.182Z,11.90
2017-11-24T23:08:12.597Z,11.80
2017-11-24T23:10:40.036Z,11.80
2017-11-24T23:13:07.481Z,11.80
2017-11-24T23:15:34.917Z,11.80
2017-11-24T23:18:02.344Z,11.80
2017-11-24T23:20:29.769Z,11.80
2017-11-24T23:22:57.201Z,11.70
2017-11-24T23:25:24.618Z,11.70
2017-11-24T23:27:52.049Z,11.70
2017-11-24T23:30:19.479Z,11.70
2017-11-24T23:32:46.899Z,11.70
2017-11-24T23:35:14.325Z,11.60
2017-11-24T23:37:41.759Z,11.60
2017-11-24T23:40:09.181Z,11.60
2017-11-24T23:42:36.613Z,11.60
2017-11-24T23:45:04.031Z,11.60
2017-11-24T23:47:31.460Z,11.60
2017-11-24T23:49:58.883Z,11.60
2017-11-24T23:52:26.448Z,11.60
2017-11-24T23:54:53.873Z,11.60
2017-11-24T23:57:21.296Z,11.60
2017-11-24T23:59:48.762Z,11.60
